Time;durP1;ratioP1;P1;durP2;ratioP2;P2;SDS_P1;SDS_P2;PMS_P1;PMS_P2;Temp;Humidity;BMP_temperature;BMP_pressure;BME280_temperature;BME280_humidity;BME280_pressure;Samples;Min_cycle;Max_cycle;Signal;HPM_P1;HPM_P2
2021/11/18 00:01:26;;;;;;;11.15;5.07;;;;;;;;;;4911593;29;20020;-76
2021/11/18 00:03:53;;;;;;;12.48;5.35;;;;;;;;;;4935415;29;20044;-76
2021/11/18 00:06:19;;;;;;;10.13;5.65;;;;;;;;;;4946795;29;20024;-73
2021/11/18 00:08:45;;;;;;;13.43;5.07;;;;;;;;;;4947490;29;20038;-74
2021/11/18 00:11:12;;;;;;;13.73;5.15;;;;;;;;;;4946803;29;20043;-74
2021/11/18 00:13:41;;;;;;;9.73;5.13;;;;;;;;;;4947089;29;20052;-74
2021/11/18 00:16:07;;;;;;;9.25;5.20;;;;;;;;;;4946509;29;20136;-74
2021/11/18 00:18:34;;;;;;;8.55;4.57;;;;;;;;;;4947099;29;20039;-76
2021/11/18 00:21:00;;;;;;;10.10;5.00;;;;;;;;;;4946862;29;20440;-74
2021/11/18 00:23:28;;;;;;;11.30;5.22;;;;;;;;;;4946431;29;20031;-75
2021/11/18 00:25:55;;;;;;;8.77;4.53;;;;;;;;;;4946580;29;20534;-77
2021/11/18 00:28:21;;;;;;;7.88;4.72;;;;;;;;;;4946775;29;20039;-76
2021/11/18 00:30:47;;;;;;;19.55;6.13;;;;;;;;;;4946557;29;20032;-74
2021/11/18 00:33:13;;;;;;;13.63;5.57;;;;;;;;;;4946183;29;20032;-75
2021/11/18 00:35:40;;;;;;;9.93;4.78;;;;;;;;;;4946686;29;20028;-74
2021/11/18 00:38:06;;;;;;;13.88;5.28;;;;;;;;;;4946755;29;20032;-74
2021/11/18 00:40:34;;;;;;;12.18;5.75;;;;;;;;;;4946609;29;20045;-73
2021/11/18 00:43:00;;;;;;;10.43;4.82;;;;;;;;;;4946310;29;20027;-76
2021/11/18 00:45:26;;;;;;;12.18;4.88;;;;;;;;;;4947189;29;20364;-74
2021/11/18 00:47:54;;;;;;;11.60;5.03;;;;;;;;;;4946655;29;20031;-75
2021/11/18 00:50:22;;;;;;;7.53;5.18;;;;;;;;;;4947083;29;20372;-76
2021/11/18 00:52:49;;;;;;;11.70;4.60;;;;;;;;;;4946833;29;20024;-75
2021/11/18 00:55:18;;;;;;;13.38;4.95;;;;;;;;;;4946664;29;20087;-74
2021/11/18 00:57:44;;;;;;;8.82;3.90;;;;;;;;;;4946456;29;20083;-75
2021/11/18 01:00:13;;;;;;;12.48;4.53;;;;;;;;;;4929930;29;20024;-75
2021/11/18 01:02:39;;;;;;;9.45;5.00;;;;;;;;;;4947076;29;20510;-75
2021/11/18 01:05:05;;;;;;;9.57;4.95;;;;;;;;;;4930893;29;20520;-74
2021/11/18 01:07:32;;;;;;;9.48;5.00;;;;;;;;;;4911323;29;20039;-76
2021/11/18 01:09:58;;;;;;;10.77;4.75;;;;;;;;;;4929017;29;20021;-75
2021/11/18 01:12:24;;;;;;;10.23;4.43;;;;;;;;;;4930473;29;20028;-74
2021/11/18 01:15:09;;;;;;;7.75;4.35;;;;;;;;;;4931092;29;20480;-75
2021/11/18 01:17:35;;;;;;;8.40;4.60;;;;;;;;;;4930511;29;20024;-74
2021/11/18 01:20:01;;;;;;;7.93;4.60;;;;;;;;;;4914003;29;20032;-75
2021/11/18 01:22:27;;;;;;;9.27;5.13;;;;;;;;;;4932292;29;20032;-76
2021/11/18 01:24:53;;;;;;;8.98;4.63;;;;;;;;;;4927901;29;20039;-75
2021/11/18 01:27:19;;;;;;;11.45;4.95;;;;;;;;;;4927494;29;20056;-76
2021/11/18 01:29:45;;;;;;;11.50;5.18;;;;;;;;;;4927705;29;20030;-74
2021/11/18 01:32:11;;;;;;;11.05;4.60;;;;;;;;;;4927204;29;20060;-76
2021/11/18 01:34:37;;;;;;;13.40;6.68;;;;;;;;;;4927255;29;20051;-75
2021/11/18 01:37:04;;;;;;;8.48;5.00;;;;;;;;;;4909853;29;20029;-77
2021/11/18 01:39:30;;;;;;;12.68;4.63;;;;;;;;;;4930849;29;20028;-76
2021/11/18 01:41:56;;;;;;;9.98;4.28;;;;;;;;;;4927172;29;20079;-72
2021/11/18 01:44:31;;;;;;;8.60;4.53;;;;;;;;;;4926748;29;20084;-75
2021/11/18 01:46:58;;;;;;;16.33;4.70;;;;;;;;;;4926205;29;20111;-74
2021/11/18 01:49:24;;;;;;;8.00;4.18;;;;;;;;;;4925960;29;20032;-74
2021/11/18 01:51:53;;;;;;;10.88;5.00;;;;;;;;;;4926720;29;20471;-75
2021/11/18 01:54:20;;;;;;;8.35;4.63;;;;;;;;;;4925866;29;20028;-75
2021/11/18 01:56:47;;;;;;;8.60;3.95;;;;;;;;;;4908840;29;20032;-74
2021/11/18 01:59:15;;;;;;;11.32;6.07;;;;;;;;;;4925220;29;20039;-75
2021/11/18 02:01:43;;;;;;;10.50;4.43;;;;;;;;;;4925972;29;20028;-76
2021/11/18 02:04:11;;;;;;;8.20;3.80;;;;;;;;;;4934821;29;20051;-76
2021/11/18 02:06:41;;;;;;;11.13;4.18;;;;;;;;;;4944604;29;20051;-75
2021/11/18 02:09:10;;;;;;;10.10;4.97;;;;;;;;;;4944299;29;20491;-74
2021/11/18 02:11:39;;;;;;;8.45;4.65;;;;;;;;;;4944861;29;20027;-75
2021/11/18 02:14:07;;;;;;;7.40;3.95;;;;;;;;;;4944936;29;20043;-76
2021/11/18 02:16:40;;;;;;;7.32;4.30;;;;;;;;;;4944165;29;20051;-77
2021/11/18 02:19:08;;;;;;;6.05;3.75;;;;;;;;;;4944512;29;20023;-77
2021/11/18 02:21:34;;;;;;;8.02;4.80;;;;;;;;;;4945310;29;20530;-75
2021/11/18 02:24:02;;;;;;;6.35;3.88;;;;;;;;;;4944600;29;20032;-74
2021/11/18 02:26:28;;;;;;;6.22;3.67;;;;;;;;;;4944738;29;20023;-76
2021/11/18 02:28:56;;;;;;;9.25;4.57;;;;;;;;;;4944150;29;20035;-75
2021/11/18 02:31:40;;;;;;;11.43;4.63;;;;;;;;;;4927480;29;20031;-76
2021/11/18 02:34:08;;;;;;;10.73;4.13;;;;;;;;;;4944277;29;20427;-75
2021/11/18 02:36:34;;;;;;;9.93;4.22;;;;;;;;;;4944311;29;20027;-76
2021/11/18 02:39:00;;;;;;;7.72;3.83;;;;;;;;;;4944803;29;20036;-76
2021/11/18 02:41:26;;;;;;;9.20;5.20;;;;;;;;;;4944698;29;20028;-74
2021/11/18 02:43:53;;;;;;;9.70;5.07;;;;;;;;;;4943977;29;20103;-74
2021/11/18 02:46:19;;;;;;;10.85;4.40;;;;;;;;;;4944903;29;20076;-77
2021/11/18 02:48:45;;;;;;;9.50;5.50;;;;;;;;;;4944477;29;20035;-75
2021/11/18 02:51:13;;;;;;;7.55;4.43;;;;;;;;;;4943915;29;20028;-75
2021/11/18 02:53:40;;;;;;;9.70;4.28;;;;;;;;;;4944641;29;20054;-76
2021/11/18 02:56:06;;;;;;;12.15;5.13;;;;;;;;;;4944390;29;20043;-77
2021/11/18 02:58:32;;;;;;;8.82;4.18;;;;;;;;;;4944302;29;20487;-74
2021/11/18 03:01:01;;;;;;;10.98;4.63;;;;;;;;;;4944378;29;20035;-74
2021/11/18 03:03:28;;;;;;;6.97;4.22;;;;;;;;;;4940311;29;20043;-75
2021/11/18 03:05:55;;;;;;;11.15;4.72;;;;;;;;;;4909053;29;20472;-77
2021/11/18 03:08:22;;;;;;;7.40;4.10;;;;;;;;;;4929197;29;20397;-74
2021/11/18 03:10:49;;;;;;;8.52;4.50;;;;;;;;;;4912328;29;20032;-76
2021/11/18 03:13:15;;;;;;;7.03;4.05;;;;;;;;;;4929410;29;20039;-77
2021/11/18 03:15:42;;;;;;;7.05;3.80;;;;;;;;;;4929121;29;20055;-74
2021/11/18 03:18:08;;;;;;;6.68;4.10;;;;;;;;;;4929525;29;20028;-76
2021/11/18 03:20:34;;;;;;;7.75;4.55;;;;;;;;;;4929598;29;20028;-77
2021/11/18 03:23:00;;;;;;;9.85;3.80;;;;;;;;;;4928663;29;20032;-76
2021/11/18 03:25:29;;;;;;;8.30;4.22;;;;;;;;;;4928566;29;20083;-75
2021/11/18 03:27:55;;;;;;;7.72;4.63;;;;;;;;;;4928617;29;20032;-75
2021/11/18 03:30:24;;;;;;;7.85;4.32;;;;;;;;;;4928889;29;20036;-75
2021/11/18 03:32:52;;;;;;;8.07;3.63;;;;;;;;;;4928539;29;20052;-74
2021/11/18 03:35:18;;;;;;;9.50;4.05;;;;;;;;;;4929047;29;20024;-74
2021/11/18 03:37:45;;;;;;;7.95;5.00;;;;;;;;;;4929554;29;20119;-75
2021/11/18 03:40:11;;;;;;;8.10;4.22;;;;;;;;;;4928784;29;20032;-77
2021/11/18 03:42:38;;;;;;;8.70;4.22;;;;;;;;;;4928718;29;20028;-74
2021/11/18 03:45:05;;;;;;;8.20;5.05;;;;;;;;;;4928688;29;20101;-75
2021/11/18 03:47:31;;;;;;;5.65;3.60;;;;;;;;;;4929154;29;20028;-76
2021/11/18 03:49:57;;;;;;;8.88;4.00;;;;;;;;;;4912065;29;20099;-75
2021/11/18 03:52:23;;;;;;;6.53;3.97;;;;;;;;;;4929913;29;20024;-75
2021/11/18 03:54:50;;;;;;;6.72;3.78;;;;;;;;;;4928981;29;20028;-77
2021/11/18 03:57:16;;;;;;;5.80;3.63;;;;;;;;;;4928257;29;20036;-74
2021/11/18 03:59:43;;;;;;;6.03;4.20;;;;;;;;;;4928835;29;20032;-75
2021/11/18 04:02:09;;;;;;;9.25;4.53;;;;;;;;;;4912095;29;20062;-76
2021/11/18 04:04:40;;;;;;;6.03;3.60;;;;;;;;;;4928512;29;20108;-75
2021/11/18 04:07:06;;;;;;;6.07;3.40;;;;;;;;;;4911637;29;20495;-75
2021/11/18 04:09:33;;;;;;;7.85;4.63;;;;;;;;;;4928411;29;20495;-75
2021/11/18 04:11:59;;;;;;;8.45;4.05;;;;;;;;;;4928809;29;20103;-76
2021/11/18 04:14:26;;;;;;;5.63;3.55;;;;;;;;;;4929016;29;20028;-74
2021/11/18 04:16:53;;;;;;;8.40;3.97;;;;;;;;;;4928713;29;20479;-76
2021/11/18 04:19:19;;;;;;;10.90;4.40;;;;;;;;;;4928287;29;20035;-76
2021/11/18 04:21:46;;;;;;;5.63;3.88;;;;;;;;;;4928662;29;20054;-75
2021/11/18 04:24:13;;;;;;;6.38;3.33;;;;;;;;;;4928031;29;20036;-75
2021/11/18 04:26:41;;;;;;;5.97;3.45;;;;;;;;;;4928472;29;20079;-76
2021/11/18 04:29:07;;;;;;;7.57;3.63;;;;;;;;;;4929123;29;20033;-75
2021/11/18 04:31:33;;;;;;;5.50;3.92;;;;;;;;;;4928501;29;20032;-74
2021/11/18 04:33:59;;;;;;;4.85;3.25;;;;;;;;;;4928672;29;20043;-77
2021/11/18 04:36:28;;;;;;;5.07;3.10;;;;;;;;;;4928114;29;20032;-76
2021/11/18 04:38:55;;;;;;;5.47;3.75;;;;;;;;;;4928337;29;20035;-74
2021/11/18 04:41:22;;;;;;;8.27;3.67;;;;;;;;;;4928153;29;20039;-74
2021/11/18 04:43:49;;;;;;;4.90;3.40;;;;;;;;;;4928485;29;20439;-75
2021/11/18 04:46:15;;;;;;;4.72;3.10;;;;;;;;;;4928360;29;20028;-77
2021/11/18 04:48:41;;;;;;;9.10;3.38;;;;;;;;;;4927471;29;20032;-76
2021/11/18 04:51:09;;;;;;;7.13;3.63;;;;;;;;;;4928333;29;20084;-78
2021/11/18 04:53:35;;;;;;;9.68;4.35;;;;;;;;;;4928262;29;20032;-77
2021/11/18 04:56:03;;;;;;;4.93;3.65;;;;;;;;;;4927878;29;20072;-76
2021/11/18 04:58:29;;;;;;;5.80;3.13;;;;;;;;;;4927709;29;20032;-75
2021/11/18 05:00:56;;;;;;;7.45;3.70;;;;;;;;;;4927643;29;20032;-74
2021/11/18 05:03:26;;;;;;;6.95;3.33;;;;;;;;;;4928897;29;20451;-74
2021/11/18 05:05:53;;;;;;;8.10;3.20;;;;;;;;;;4928067;29;20048;-74
2021/11/18 05:08:19;;;;;;;6.60;3.20;;;;;;;;;;4927882;29;20059;-74
2021/11/18 05:10:46;;;;;;;5.55;3.15;;;;;;;;;;4911348;29;20027;-78
2021/11/18 05:13:13;;;;;;;5.93;3.28;;;;;;;;;;4927715;29;20025;-73
2021/11/18 05:15:40;;;;;;;5.03;3.17;;;;;;;;;;4927634;29;20040;-75
2021/11/18 05:18:07;;;;;;;5.78;3.60;;;;;;;;;;4927655;29;20051;-76
2021/11/18 05:20:34;;;;;;;6.55;3.28;;;;;;;;;;4927472;29;20028;-73
2021/11/18 05:23:00;;;;;;;8.40;3.30;;;;;;;;;;4927768;29;20087;-76
2021/11/18 05:25:28;;;;;;;6.65;3.28;;;;;;;;;;4927931;29;20088;-75
2021/11/18 05:27:54;;;;;;;4.40;2.85;;;;;;;;;;4928063;29;20494;-75
2021/11/18 05:30:23;;;;;;;5.88;3.00;;;;;;;;;;4927537;29;20051;-74
2021/11/18 05:32:50;;;;;;;4.32;3.00;;;;;;;;;;4927807;29;20024;-75
2021/11/18 05:35:16;;;;;;;4.70;3.13;;;;;;;;;;4928219;29;20035;-74
2021/11/18 05:37:42;;;;;;;4.68;2.83;;;;;;;;;;4928736;29;20031;-75
2021/11/18 05:40:09;;;;;;;5.50;3.05;;;;;;;;;;4928074;29;20031;-74
2021/11/18 05:42:36;;;;;;;6.45;3.03;;;;;;;;;;4928999;29;20024;-75
2021/11/18 05:45:04;;;;;;;4.15;3.10;;;;;;;;;;4912588;29;20032;-74
2021/11/18 05:47:30;;;;;;;4.15;2.75;;;;;;;;;;4928802;29;20028;-74
2021/11/18 05:49:56;;;;;;;6.63;3.05;;;;;;;;;;4929423;29;20032;-74
2021/11/18 05:52:22;;;;;;;5.47;3.13;;;;;;;;;;4929616;29;20043;-74
2021/11/18 05:54:49;;;;;;;3.97;2.88;;;;;;;;;;4929489;29;20043;-75
2021/11/18 05:57:15;;;;;;;4.45;2.60;;;;;;;;;;4913061;29;20035;-75
2021/11/18 05:59:41;;;;;;;3.65;2.72;;;;;;;;;;4930299;29;20439;-75
2021/11/18 06:02:07;;;;;;;3.85;3.08;;;;;;;;;;4930377;29;20104;-74
2021/11/18 06:04:33;;;;;;;4.45;2.45;;;;;;;;;;4930192;29;20070;-76
2021/11/18 06:06:59;;;;;;;5.65;2.90;;;;;;;;;;4931859;29;20032;-74
2021/11/18 06:09:25;;;;;;;3.72;2.42;;;;;;;;;;4931636;29;20032;-73
2021/11/18 06:11:52;;;;;;;3.20;2.67;;;;;;;;;;4933706;29;20122;-75
2021/11/18 06:14:18;;;;;;;5.72;2.83;;;;;;;;;;4933985;29;20096;-73
2021/11/18 06:16:44;;;;;;;5.32;2.92;;;;;;;;;;4935449;29;20035;-73
2021/11/18 06:19:10;;;;;;;3.72;2.70;;;;;;;;;;4935387;29;20032;-74
2021/11/18 06:21:38;;;;;;;5.00;3.05;;;;;;;;;;4917768;29;20032;-75
2021/11/18 06:24:05;;;;;;;5.25;3.10;;;;;;;;;;4933753;29;20032;-74
2021/11/18 06:26:31;;;;;;;5.25;2.92;;;;;;;;;;4934379;29;20036;-77
2021/11/18 06:28:58;;;;;;;5.93;3.08;;;;;;;;;;4918318;29;20036;-75
2021/11/18 06:31:25;;;;;;;5.38;3.10;;;;;;;;;;4917556;29;20034;-74
2021/11/18 06:33:51;;;;;;;4.80;2.83;;;;;;;;;;4934616;29;20036;-74
2021/11/18 06:36:18;;;;;;;5.50;2.95;;;;;;;;;;4934500;29;20032;-74
2021/11/18 06:38:46;;;;;;;3.83;2.63;;;;;;;;;;4934349;29;20039;-74
2021/11/18 06:41:13;;;;;;;4.10;3.00;;;;;;;;;;4934329;29;20032;-75
2021/11/18 06:43:40;;;;;;;5.00;3.10;;;;;;;;;;4935634;29;20042;-75
2021/11/18 06:46:06;;;;;;;4.32;3.22;;;;;;;;;;4935484;29;20032;-75
2021/11/18 06:48:32;;;;;;;4.63;3.40;;;;;;;;;;4934670;29;20017;-75
2021/11/18 06:51:07;;;;;;;5.75;3.13;;;;;;;;;;5068574;23;20116;-76
2021/11/18 06:53:36;;;;;;;4.97;2.97;;;;;;;;;;4959478;28;20083;-73
2021/11/18 06:56:10;;;;;;;5.55;3.20;;;;;;;;;;4950464;29;20040;-74
2021/11/18 06:58:37;;;;;;;5.05;3.15;;;;;;;;;;4935946;29;20046;-74
2021/11/18 07:01:10;;;;;;;3.55;2.35;;;;;;;;;;4954513;29;20027;-73
2021/11/18 07:03:40;;;;;;;3.80;2.67;;;;;;;;;;4938428;29;20055;-74
2021/11/18 07:06:16;;;;;;;5.05;2.63;;;;;;;;;;4954490;29;20048;-75
2021/11/18 07:08:43;;;;;;;3.97;3.20;;;;;;;;;;4952466;29;20019;-75
2021/11/18 07:11:12;;;;;;;4.45;2.90;;;;;;;;;;4949977;29;20031;-75
2021/11/18 07:13:47;;;;;;;3.58;2.50;;;;;;;;;;4951514;29;20028;-74
2021/11/18 07:16:16;;;;;;;5.57;2.92;;;;;;;;;;4949750;29;20079;-74
2021/11/18 07:18:45;;;;;;;3.83;2.75;;;;;;;;;;4950507;29;20028;-74
2021/11/18 07:21:13;;;;;;;3.45;2.65;;;;;;;;;;4950234;29;20035;-75
2021/11/18 07:23:40;;;;;;;5.63;2.83;;;;;;;;;;4951807;29;20000;-73
2021/11/18 07:26:08;;;;;;;4.28;2.83;;;;;;;;;;4950264;29;20031;-74
2021/11/18 07:28:35;;;;;;;3.47;2.45;;;;;;;;;;4951207;29;20024;-74
2021/11/18 07:31:02;;;;;;;5.03;2.33;;;;;;;;;;4950186;29;20040;-76
2021/11/18 07:33:29;;;;;;;3.42;2.42;;;;;;;;;;4950505;29;20083;-75
2021/11/18 07:35:55;;;;;;;3.10;2.55;;;;;;;;;;4951117;29;20090;-74
2021/11/18 07:38:22;;;;;;;3.15;2.60;;;;;;;;;;4949584;29;20032;-74
2021/11/18 07:40:49;;;;;;;3.28;2.35;;;;;;;;;;4950699;29;20039;-75
2021/11/18 07:43:19;;;;;;;2.97;2.30;;;;;;;;;;4932995;29;20546;-75
2021/11/18 07:45:48;;;;;;;5.35;2.85;;;;;;;;;;4934033;29;20047;-73
2021/11/18 07:48:15;;;;;;;7.03;3.17;;;;;;;;;;4951068;29;20088;-74
2021/11/18 07:50:41;;;;;;;6.93;2.90;;;;;;;;;;4949708;29;20038;-75
2021/11/18 07:53:07;;;;;;;6.55;3.28;;;;;;;;;;4951535;29;20047;-74
2021/11/18 07:55:33;;;;;;;4.00;3.22;;;;;;;;;;4935837;29;20055;-76
2021/11/18 07:57:59;;;;;;;3.70;2.85;;;;;;;;;;4953130;29;20032;-74
2021/11/18 08:00:26;;;;;;;3.65;2.90;;;;;;;;;;4936252;29;20023;-74
2021/11/18 08:02:56;;;;;;;4.35;3.35;;;;;;;;;;4951204;29;20502;-74
2021/11/18 08:05:24;;;;;;;4.40;2.95;;;;;;;;;;4933602;29;20032;-74
2021/11/18 08:07:50;;;;;;;5.07;2.88;;;;;;;;;;4945035;29;20028;-73
2021/11/18 08:10:17;;;;;;;4.97;2.83;;;;;;;;;;4949686;29;20031;-75
2021/11/18 08:12:43;;;;;;;5.30;3.10;;;;;;;;;;4950712;29;20028;-75
2021/11/18 08:15:11;;;;;;;4.90;2.97;;;;;;;;;;4949331;29;20023;-75
2021/11/18 08:17:38;;;;;;;3.22;2.63;;;;;;;;;;4948099;29;20024;-74
2021/11/18 08:20:05;;;;;;;3.65;2.70;;;;;;;;;;4950940;29;20047;-74
2021/11/18 08:22:31;;;;;;;3.90;2.65;;;;;;;;;;4953817;29;20534;-74
2021/11/18 08:24:57;;;;;;;3.47;2.60;;;;;;;;;;4954136;29;20031;-73
2021/11/18 08:27:23;;;;;;;3.03;2.45;;;;;;;;;;4935513;29;20031;-75
2021/11/18 08:29:49;;;;;;;3.22;2.50;;;;;;;;;;4936204;29;20035;-74
2021/11/18 08:32:16;;;;;;;4.10;2.50;;;;;;;;;;4953768;29;20051;-76
2021/11/18 08:34:43;;;;;;;4.85;2.50;;;;;;;;;;4949836;29;20034;-74
2021/11/18 08:37:52;;;;;;;5.25;2.53;;;;;;;;;;4950770;29;20036;-76
2021/11/18 08:40:38;;;;;;;5.32;2.47;;;;;;;;;;4936483;29;20036;-74
2021/11/18 08:43:05;;;;;;;3.50;2.35;;;;;;;;;;4952785;29;20032;-72
2021/11/18 08:45:32;;;;;;;4.60;3.05;;;;;;;;;;4952132;29;20459;-74
2021/11/18 08:47:59;;;;;;;3.17;2.20;;;;;;;;;;4953244;29;20027;-74
2021/11/18 08:50:25;;;;;;;3.05;2.30;;;;;;;;;;4952957;29;20048;-74
2021/11/18 08:52:51;;;;;;;4.68;2.10;;;;;;;;;;4952316;29;20122;-74
2021/11/18 08:55:35;;;;;;;5.03;1.98;;;;;;;;;;4936663;29;20055;-73
2021/11/18 08:58:01;;;;;;;2.03;1.73;;;;;;;;;;4953915;29;20526;-74
2021/11/18 09:00:30;;;;;;;3.63;1.70;;;;;;;;;;4955078;29;20028;-76
2021/11/18 09:02:57;;;;;;;2.30;2.00;;;;;;;;;;4950350;29;20034;-76
2021/11/18 09:05:24;;;;;;;4.45;1.58;;;;;;;;;;4949598;29;20023;-75
2021/11/18 09:08:04;;;;;;;2.53;1.85;;;;;;;;;;4952967;29;20055;-76
2021/11/18 09:10:33;;;;;;;2.08;1.83;;;;;;;;;;4951689;29;20015;-76
2021/11/18 09:12:59;;;;;;;3.38;1.85;;;;;;;;;;4948217;29;20030;-77
2021/11/18 09:15:27;;;;;;;4.15;1.85;;;;;;;;;;4949794;29;20031;-76
2021/11/18 09:17:54;;;;;;;2.72;1.60;;;;;;;;;;4942763;29;20023;-75
2021/11/18 09:20:21;;;;;;;2.88;2.03;;;;;;;;;;4943827;29;20028;-77
2021/11/18 09:22:59;;;;;;;5.28;2.03;;;;;;;;;;4943125;29;20487;-74
2021/11/18 09:25:27;;;;;;;5.63;1.90;;;;;;;;;;4945122;29;20038;-76
2021/11/18 09:27:53;;;;;;;3.50;1.73;;;;;;;;;;4946859;29;20028;-76
2021/11/18 09:30:22;;;;;;;3.65;2.05;;;;;;;;;;4940864;29;20015;-77
2021/11/18 09:32:48;;;;;;;3.90;2.72;;;;;;;;;;4934407;29;20096;-76
2021/11/18 09:35:16;;;;;;;4.43;2.40;;;;;;;;;;4948131;29;20034;-75
2021/11/18 09:37:42;;;;;;;2.63;2.10;;;;;;;;;;4950532;29;20031;-75
2021/11/18 09:40:11;;;;;;;3.50;3.20;;;;;;;;;;4950989;29;20035;-75
2021/11/18 09:42:57;;;;;;;3.85;2.67;;;;;;;;;;4935440;29;20034;-76
2021/11/18 09:45:26;;;;;;;3.10;2.17;;;;;;;;;;4938446;29;20055;-75
2021/11/18 09:47:56;;;;;;;1.88;1.38;;;;;;;;;;4921577;29;20024;-76
2021/11/18 09:50:22;;;;;;;4.07;1.60;;;;;;;;;;4953404;29;20590;-76
2021/11/18 09:53:03;;;;;;;1.98;1.40;;;;;;;;;;4951851;29;20048;-75
2021/11/18 09:55:49;;;;;;;2.83;1.50;;;;;;;;;;4932900;29;20032;-75
2021/11/18 09:58:25;;;;;;;1.48;1.20;;;;;;;;;;4963004;29;20039;-73
2021/11/18 10:01:10;;;;;;;1.55;1.40;;;;;;;;;;4960296;29;20024;-73
2021/11/18 10:03:48;;;;;;;2.42;1.60;;;;;;;;;;4932185;29;20024;-75
2021/11/18 10:06:27;;;;;;;2.42;1.40;;;;;;;;;;4947547;29;20031;-76
2021/11/18 10:09:06;;;;;;;3.15;1.50;;;;;;;;;;4931693;29;20064;-73
2021/11/18 10:11:41;;;;;;;2.42;1.33;;;;;;;;;;4946927;29;20059;-76
2021/11/18 10:14:30;;;;;;;2.50;1.50;;;;;;;;;;4946905;29;20055;-78
2021/11/18 10:17:17;;;;;;;1.67;1.48;;;;;;;;;;4927221;29;20036;-75
2021/11/18 10:20:06;;;;;;;1.60;1.50;;;;;;;;;;4945756;29;20031;-75
2021/11/18 10:22:35;;;;;;;2.13;1.45;;;;;;;;;;4948898;29;20083;-75
2021/11/18 10:25:02;;;;;;;1.60;1.50;;;;;;;;;;4949648;29;20034;-73
2021/11/18 10:27:37;;;;;;;2.10;1.80;;;;;;;;;;4949319;29;20027;-74
2021/11/18 10:30:09;;;;;;;3.55;1.80;;;;;;;;;;4951178;29;20031;-75
2021/11/18 10:32:48;;;;;;;1.92;1.83;;;;;;;;;;4930850;29;20028;-74
2021/11/18 10:35:28;;;;;;;2.15;1.90;;;;;;;;;;4944364;29;20028;-74
2021/11/18 10:38:10;;;;;;;2.13;1.90;;;;;;;;;;4932670;29;20043;-74
2021/11/18 10:40:36;;;;;;;1.80;1.70;;;;;;;;;;4951005;29;20032;-75
2021/11/18 10:43:02;;;;;;;3.13;2.40;;;;;;;;;;4952694;29;20034;-76
2021/11/18 10:45:29;;;;;;;2.35;2.10;;;;;;;;;;4950706;29;20034;-75
2021/11/18 10:47:57;;;;;;;4.20;2.58;;;;;;;;;;4937902;29;20051;-76
2021/11/18 10:50:41;;;;;;;3.78;2.22;;;;;;;;;;4932289;29;20055;-75
2021/11/18 10:53:07;;;;;;;1.90;1.70;;;;;;;;;;4930976;29;20048;-73
2021/11/18 10:55:38;;;;;;;1.90;1.65;;;;;;;;;;4937722;29;20111;-74
2021/11/18 10:58:04;;;;;;;2.78;1.80;;;;;;;;;;4949618;29;20024;-75
2021/11/18 11:00:41;;;;;;;4.47;2.53;;;;;;;;;;4950288;29;20031;-74
2021/11/18 11:03:26;;;;;;;2.20;2.00;;;;;;;;;;4950912;29;20024;-73
2021/11/18 11:06:11;;;;;;;1.98;1.70;;;;;;;;;;4950269;29;20083;-74
2021/11/18 11:08:38;;;;;;;2.43;1.70;;;;;;;;;;4952053;29;20088;-75
2021/11/18 11:11:24;;;;;;;7.07;1.83;;;;;;;;;;4950635;29;20031;-74
2021/11/18 11:14:12;;;;;;;2.00;1.80;;;;;;;;;;4951291;29;20024;-75
2021/11/18 11:16:38;;;;;;;4.97;1.73;;;;;;;;;;4951539;29;20028;-75
2021/11/18 11:19:14;;;;;;;1.60;1.50;;;;;;;;;;4933348;29;20027;-75
2021/11/18 11:22:00;;;;;;;2.25;1.65;;;;;;;;;;4937481;29;20023;-77
2021/11/18 11:24:42;;;;;;;2.92;1.50;;;;;;;;;;4940004;29;20039;-76
2021/11/18 11:27:41;;;;;;;1.58;1.48;;;;;;;;;;4951266;29;20024;-75
2021/11/18 11:30:13;;;;;;;3.85;1.83;;;;;;;;;;4922984;29;20035;-75
2021/11/18 11:32:42;;;;;;;3.45;2.50;;;;;;;;;;4961558;28;20076;-76
2021/11/18 11:35:20;;;;;;;2.67;2.10;;;;;;;;;;4961141;28;20055;-77
2021/11/18 11:38:02;;;;;;;2.03;1.67;;;;;;;;;;4960524;29;20028;-76
2021/11/18 11:40:47;;;;;;;3.60;2.00;;;;;;;;;;4959569;29;20012;-77
2021/11/18 11:43:16;;;;;;;2.42;1.60;;;;;;;;;;4956370;29;20028;-77
2021/11/18 11:45:46;;;;;;;1.60;1.50;;;;;;;;;;4950664;29;20079;-78
2021/11/18 11:48:30;;;;;;;4.32;2.13;;;;;;;;;;4958993;29;20096;-78
2021/11/18 11:51:15;;;;;;;1.60;1.50;;;;;;;;;;4928817;29;20040;-76
2021/11/18 11:53:56;;;;;;;2.00;1.70;;;;;;;;;;4929473;29;20031;-75
2021/11/18 11:56:34;;;;;;;2.45;2.10;;;;;;;;;;4933714;29;20279;-78
2021/11/18 11:59:02;;;;;;;2.30;2.00;;;;;;;;;;4937806;29;20104;-75
2021/11/18 12:01:38;;;;;;;1.67;1.58;;;;;;;;;;4942595;29;20383;-76
2021/11/18 12:04:11;;;;;;;2.20;1.77;;;;;;;;;;4949808;29;20075;-74
2021/11/18 12:06:58;;;;;;;1.70;1.60;;;;;;;;;;4940802;29;20084;-75
2021/11/18 12:09:45;;;;;;;1.83;1.70;;;;;;;;;;4948088;29;20043;-74
2021/11/18 12:12:18;;;;;;;3.08;1.60;;;;;;;;;;4933216;29;20475;-73
2021/11/18 12:14:45;;;;;;;2.70;1.90;;;;;;;;;;4950277;29;20035;-77
2021/11/18 12:17:20;;;;;;;3.78;1.60;;;;;;;;;;4948636;29;20031;-76
2021/11/18 12:19:49;;;;;;;2.72;2.05;;;;;;;;;;4949812;29;20039;-75
2021/11/18 12:22:32;;;;;;;2.42;1.92;;;;;;;;;;4950321;29;20027;-73
2021/11/18 12:25:05;;;;;;;2.28;1.70;;;;;;;;;;4932903;29;20079;-74
2021/11/18 12:27:33;;;;;;;1.98;1.60;;;;;;;;;;4932963;29;20024;-78
2021/11/18 12:30:12;;;;;;;2.45;1.73;;;;;;;;;;4932373;29;20060;-73
2021/11/18 12:32:39;;;;;;;2.88;1.80;;;;;;;;;;4932685;29;20071;-73
2021/11/18 12:35:08;;;;;;;2.10;1.73;;;;;;;;;;4943455;29;20032;-74
2021/11/18 12:37:46;;;;;;;2.75;2.00;;;;;;;;;;4947751;29;20024;-74
2021/11/18 12:40:15;;;;;;;3.30;2.08;;;;;;;;;;4947801;29;20035;-73
2021/11/18 12:43:07;;;;;;;3.35;2.10;;;;;;;;;;4951686;29;20028;-73
2021/11/18 12:46:21;;;;;;;3.40;2.50;;;;;;;;;;4950797;29;20059;-74
2021/11/18 12:48:54;;;;;;;4.45;2.35;;;;;;;;;;4892904;29;20047;-73
2021/11/18 12:51:25;;;;;;;3.05;2.20;;;;;;;;;;4891887;29;20033;-74
2021/11/18 12:54:12;;;;;;;2.25;2.00;;;;;;;;;;4913746;29;20063;-74
2021/11/18 12:57:09;;;;;;;3.85;1.98;;;;;;;;;;4947084;29;20039;-74
2021/11/18 12:59:47;;;;;;;5.38;1.90;;;;;;;;;;4951286;29;20067;-74
2021/11/18 13:02:29;;;;;;;4.38;2.10;;;;;;;;;;4950394;29;20489;-76
2021/11/18 13:04:57;;;;;;;2.30;2.10;;;;;;;;;;4947288;29;20391;-73
2021/11/18 13:07:38;;;;;;;1.90;1.70;;;;;;;;;;4945222;29;20032;-76
2021/11/18 13:10:09;;;;;;;3.70;1.88;;;;;;;;;;4945047;29;20023;-76
2021/11/18 13:12:37;;;;;;;2.17;1.85;;;;;;;;;;4946430;29;20099;-77
2021/11/18 13:15:09;;;;;;;2.35;1.70;;;;;;;;;;4946515;29;20483;-73
2021/11/18 13:17:40;;;;;;;3.13;2.00;;;;;;;;;;4930929;29;20024;-77
2021/11/18 13:20:09;;;;;;;4.10;2.45;;;;;;;;;;4927676;29;20039;-74
2021/11/18 13:22:41;;;;;;;5.10;2.28;;;;;;;;;;4946074;29;20026;-74
2021/11/18 13:25:36;;;;;;;2.60;2.35;;;;;;;;;;4945294;29;20110;-74
2021/11/18 13:28:16;;;;;;;3.43;1.90;;;;;;;;;;4920712;29;20100;-74
2021/11/18 13:30:52;;;;;;;2.25;1.70;;;;;;;;;;4932463;29;20272;-73
2021/11/18 13:33:18;;;;;;;3.40;1.80;;;;;;;;;;4948823;29;20033;-74
2021/11/18 13:35:44;;;;;;;1.73;1.63;;;;;;;;;;4949625;29;20027;-72
2021/11/18 13:38:13;;;;;;;4.07;2.30;;;;;;;;;;4949634;29;20028;-76
2021/11/18 13:40:49;;;;;;;2.95;2.65;;;;;;;;;;4948871;29;20028;-75
2021/11/18 13:43:17;;;;;;;4.93;2.30;;;;;;;;;;4949543;29;20099;-75
2021/11/18 13:46:02;;;;;;;2.85;2.00;;;;;;;;;;4948993;29;20046;-75
2021/11/18 13:48:50;;;;;;;4.07;2.55;;;;;;;;;;4948789;29;20028;-77
2021/11/18 13:51:17;;;;;;;8.23;3.03;;;;;;;;;;4944683;29;20047;-74
2021/11/18 13:53:57;;;;;;;3.80;2.20;;;;;;;;;;4945415;29;20055;-75
2021/11/18 13:56:35;;;;;;;5.13;2.95;;;;;;;;;;4939791;29;20483;-74
2021/11/18 13:59:07;;;;;;;5.05;2.83;;;;;;;;;;4947405;29;20032;-76
2021/11/18 14:01:38;;;;;;;5.88;3.28;;;;;;;;;;4945020;29;20387;-77
2021/11/18 14:04:28;;;;;;;7.13;3.00;;;;;;;;;;4936812;29;20099;-75
2021/11/18 14:06:55;;;;;;;4.13;3.50;;;;;;;;;;4925373;29;20052;-75
2021/11/18 14:09:27;;;;;;;3.88;3.35;;;;;;;;;;4928229;29;20075;-73
2021/11/18 14:11:57;;;;;;;4.15;2.88;;;;;;;;;;4928387;29;20028;-77
2021/11/18 14:14:29;;;;;;;3.78;2.50;;;;;;;;;;4925880;29;20035;-73
2021/11/18 14:17:08;;;;;;;3.75;2.80;;;;;;;;;;4944172;29;20432;-73
2021/11/18 14:19:50;;;;;;;3.55;2.38;;;;;;;;;;4929723;29;20024;-75
2021/11/18 14:22:23;;;;;;;3.45;2.75;;;;;;;;;;4930646;29;20028;-74
2021/11/18 14:24:50;;;;;;;4.85;2.65;;;;;;;;;;4929815;29;20398;-73
2021/11/18 14:27:16;;;;;;;4.50;3.90;;;;;;;;;;4946932;29;20035;-76
2021/11/18 14:29:46;;;;;;;3.42;3.05;;;;;;;;;;4945662;29;20036;-73
2021/11/18 14:32:18;;;;;;;5.82;2.70;;;;;;;;;;4932129;29;20035;-75
2021/11/18 14:34:54;;;;;;;4.82;3.10;;;;;;;;;;4943201;29;20046;-73
2021/11/18 14:37:32;;;;;;;4.80;3.10;;;;;;;;;;4935767;29;20031;-73
2021/11/18 14:40:09;;;;;;;5.13;2.90;;;;;;;;;;4942977;29;20035;-76
2021/11/18 14:42:45;;;;;;;4.90;3.45;;;;;;;;;;4942154;29;20031;-74
2021/11/18 14:45:37;;;;;;;7.47;4.85;;;;;;;;;;4912576;29;20039;-76
2021/11/18 14:48:25;;;;;;;4.50;3.42;;;;;;;;;;4923669;29;20115;-76
2021/11/18 14:51:12;;;;;;;4.35;3.15;;;;;;;;;;4917952;29;20040;-76
2021/11/18 14:53:43;;;;;;;6.20;3.38;;;;;;;;;;4910566;29;20054;-75
2021/11/18 14:56:28;;;;;;;4.28;3.17;;;;;;;;;;4963910;29;20031;-73
2021/11/18 14:58:58;;;;;;;5.97;4.93;;;;;;;;;;4964153;29;20027;-76
2021/11/18 15:01:28;;;;;;;7.07;4.90;;;;;;;;;;4945708;29;20020;-74